• Join FlightAware (Why Join?)
  • Login
  • US Flag 
08:56AM EDT


 

Airport Tracker/Info


-or-


 

Live Flight TrackerFlight Track Log ✈ VH-EEP ✈ 27-Sep-2013 ✈ KCKL - YPJT / JAD

Flight Track Log - Related Links

Times and Time Zones

All times are in EDT time to prevent confusion due to time zone crossing. See the VH-EEP flight status page for this flight to view local times or setup timezone preferences in your user account.

Time Position Orientation Groundspeed Altitude Reporting Facility
EDT Latitude Longitude Course Direction KTS MPH feet Rate Location/Type
12:09AM -31.7697 116.5030 232° Southwest 94 108 3,200  Level Aus ATC (RADAR)
12:09AM -31.7824 116.4838 232° Southwest 99 114 3,000 -180 Descending Aus ATC (RADAR)
12:10AM -31.7904 116.4714 233° Southwest 95 109 3,000 -120 Level Aus ATC (RADAR)
12:11AM -31.8044 116.4508 231° Southwest 96 110 2,900 -120 Descending Aus ATC (RADAR)
12:11AM -31.8144 116.4338 235° Southwest 96 110 2,900  Level Aus ATC (RADAR)
12:12AM -31.8224 116.4210 234° Southwest 95 109 2,900  Level Aus ATC (RADAR)
12:12AM -31.8317 116.4064 233° Southwest 96 110 2,900 -120 Level Aus ATC (RADAR)
12:13AM -31.8427 116.3892 233° Southwest 98 113 2,800 60 Descending Aus ATC (RADAR)
12:14AM -31.8517 116.3742 235° Southwest 97 112 3,000 240 Climbing Aus ATC (RADAR)
12:15AM -31.8683 116.3526 228° Southwest 98 113 3,200  Climbing Aus ATC (RADAR)
12:15AM -31.8750 116.3447 225° Southwest 99 114 3,000 -360 Descending Aus ATC (RADAR)
12:16AM -31.8894 116.3313 218° Southwest 98 113 2,900 120 Descending Aus ATC (RADAR)
12:16AM -31.9056 116.3120 225° Southwest 101 116 3,200 120 Climbing Aus ATC (RADAR)
12:17AM -31.9177 116.2960 228° Southwest 97 112 3,100  Descending Aus ATC (RADAR)
12:18AM -31.9312 116.2773 230° Southwest 100 115 3,200  Climbing Aus ATC (RADAR)
12:18AM -31.9437 116.2648 220° Southwest 102 117 3,100 -180 Descending Aus ATC (RADAR)
12:19AM -31.9625 116.2486 216° Southwest 99 114 3,000 -180 Descending Aus ATC (RADAR)
12:20AM -31.9698 116.2428 214° Southwest 96 110 2,900 -120 Descending Aus ATC (RADAR)
12:20AM -31.9824 116.2326 215° Southwest 94 108 2,900  Level Aus ATC (RADAR)
12:22AM -32.0137 116.2095 212° Southwest 100 115 2,900  Level Aus ATC (RADAR)
12:22AM -32.0243 116.2037 205° Southwest 101 116 2,900 180 Level Aus ATC (RADAR)
12:23AM -32.0387 116.1950 207° Southwest 100 115 3,100 60 Climbing Aus ATC (RADAR)
12:23AM -32.0575 116.1855 203° Southwest 97 112 3,000  Descending Aus ATC (RADAR)
12:24AM -32.0698 116.1792 204° Southwest 97 112 3,100  Climbing Aus ATC (RADAR)
12:24AM -32.0848 116.1705 206° Southwest 104 120 3,000 -120 Descending Aus ATC (RADAR)
12:25AM -32.1024 116.1602 206° Southwest 106 122 3,000 60 Level Aus ATC (RADAR)
12:26AM -32.1333 116.1374 212° Southwest 104 120 3,200 -120 Climbing Aus ATC (RADAR)
12:27AM -32.1440 116.1265 221° Southwest 102 117 2,800 -300 Descending Aus ATC (RADAR)
12:27AM -32.1489 116.1086 252° West 96 110 2,900 60 Climbing Aus ATC (RADAR)
12:28AM -32.1523 116.0851 260° West 95 109 2,900  Level Aus ATC (RADAR)
12:29AM -32.1557 116.0669 258° West 96 110 2,900  Level Aus ATC (RADAR)
12:29AM -32.1604 116.0444 256° West 88 101 2,900 -360 Level Aus ATC (RADAR)
12:30AM -32.1629 116.0343 254° West 77 89 2,500 -720 Descending Aus ATC (RADAR)
12:31AM -32.1710 116.0052 252° West 76 87 1,800 -660 Descending Aus ATC (RADAR)
12:32AM -32.1748 115.9924 250° West 76 87 1,500 -360 Descending Aus ATC (RADAR)
12:32AM -32.1782 115.9802 252° West 88 101 1,500 -240 Level Aus ATC (RADAR)
12:33AM -32.1802 115.9624 262° West 90 104 1,300  Descending Aus ATC (RADAR)
12:33AM -32.1682 115.9518 323° Northwest 84 97 1,500 120 Climbing Aus ATC (RADAR)
12:34AM -32.1567 115.9417 324° Northwest 86 99 1,500  Level Aus ATC (RADAR)
12:35AM -32.1384 115.9267 325° Northwest 85 98 1,500  Level Aus ATC (RADAR)
12:35AM -32.1335 115.9220 321° Northwest 88 101 1,500  Level Aus ATC (RADAR)
12:36AM -32.1156 115.9009 315° West 82 94 1,500 60 Level Aus ATC (RADAR)
12:37AM -32.1082 115.8894 308° West 87 100 1,600 300 Climbing Aus ATC (RADAR)
12:37AM -32.1020 115.8808 310° West 83 96 1,800 180 Climbing Aus ATC (RADAR)
12:38AM -32.0922 115.8695 315° West 80 92 1,800 -420 Level Aus ATC (RADAR)
12:38AM -32.0796 115.8791 33° Northeast 85 98 1,300 -660 Descending Aus ATC (RADAR)
12:39AM -32.0737 115.8926 63° Northeast 82 94 1,000 -540 Descending Aus ATC (RADAR)
12:40AM -32.0866 115.8970 164° South 67 77 600 -660 Descending Aus ATC (RADAR)
12:40AM -32.0910 115.8890 237° Southwest 57 66 200 -840 Descending Aus ATC (RADAR)